sensor_id;sensor_type;location;lat;lon;timestamp;P1;durP1;ratioP1;P2;durP2;ratioP2
35084;SDS011;21267;51.032;6.998;2024-01-07T00:01:45;30.90;;;17.75;;
35084;SDS011;21267;51.032;6.998;2024-01-07T00:04:16;39.25;;;23.52;;
35084;SDS011;21267;51.032;6.998;2024-01-07T00:06:43;42.17;;;24.60;;
35084;SDS011;21267;51.032;6.998;2024-01-07T00:09:11;40.93;;;23.93;;
35084;SDS011;21267;51.032;6.998;2024-01-07T00:11:39;39.20;;;23.83;;
35084;SDS011;21267;51.032;6.998;2024-01-07T00:14:06;37.53;;;21.38;;
35084;SDS011;21267;51.032;6.998;2024-01-07T00:16:34;37.30;;;22.83;;
35084;SDS011;21267;51.032;6.998;2024-01-07T00:19:01;33.40;;;20.98;;
35084;SDS011;21267;51.032;6.998;2024-01-07T00:21:28;38.63;;;21.13;;
35084;SDS011;21267;51.032;6.998;2024-01-07T00:23:55;34.47;;;20.85;;
35084;SDS011;21267;51.032;6.998;2024-01-07T00:26:22;35.53;;;20.55;;
35084;SDS011;21267;51.032;6.998;2024-01-07T00:28:50;35.00;;;21.25;;
35084;SDS011;21267;51.032;6.998;2024-01-07T00:31:20;34.67;;;21.08;;
35084;SDS011;21267;51.032;6.998;2024-01-07T00:33:47;36.03;;;20.80;;
35084;SDS011;21267;51.032;6.998;2024-01-07T00:36:15;33.92;;;21.45;;
35084;SDS011;21267;51.032;6.998;2024-01-07T00:38:42;31.10;;;19.50;;
35084;SDS011;21267;51.032;6.998;2024-01-07T00:41:09;33.80;;;20.67;;
35084;SDS011;21267;51.032;6.998;2024-01-07T00:43:36;26.47;;;15.67;;
35084;SDS011;21267;51.032;6.998;2024-01-07T00:46:03;30.47;;;20.30;;
35084;SDS011;21267;51.032;6.998;2024-01-07T00:48:31;34.15;;;20.10;;
35084;SDS011;21267;51.032;6.998;2024-01-07T00:50:58;28.47;;;18.43;;
35084;SDS011;21267;51.032;6.998;2024-01-07T00:53:25;30.73;;;19.60;;
35084;SDS011;21267;51.032;6.998;2024-01-07T00:55:52;29.27;;;19.00;;
35084;SDS011;21267;51.032;6.998;2024-01-07T01:01:38;31.55;;;19.55;;
35084;SDS011;21267;51.032;6.998;2024-01-07T01:04:05;31.38;;;18.63;;
35084;SDS011;21267;51.032;6.998;2024-01-07T01:06:32;26.00;;;16.30;;
35084;SDS011;21267;51.032;6.998;2024-01-07T01:08:59;31.17;;;18.20;;
35084;SDS011;21267;51.032;6.998;2024-01-07T01:11:26;26.88;;;16.02;;
35084;SDS011;21267;51.032;6.998;2024-01-07T01:13:52;25.70;;;16.08;;
35084;SDS011;21267;51.032;6.998;2024-01-07T01:16:19;22.40;;;14.60;;
35084;SDS011;21267;51.032;6.998;2024-01-07T01:18:50;23.42;;;16.10;;
35084;SDS011;21267;51.032;6.998;2024-01-07T01:21:17;22.53;;;14.50;;
35084;SDS011;21267;51.032;6.998;2024-01-07T01:23:44;23.50;;;14.93;;
35084;SDS011;21267;51.032;6.998;2024-01-07T01:26:13;23.10;;;13.68;;
35084;SDS011;21267;51.032;6.998;2024-01-07T01:28:39;21.27;;;13.25;;
35084;SDS011;21267;51.032;6.998;2024-01-07T01:31:06;16.20;;;10.88;;
35084;SDS011;21267;51.032;6.998;2024-01-07T01:33:33;16.65;;;11.80;;
35084;SDS011;21267;51.032;6.998;2024-01-07T01:36:03;16.58;;;11.20;;
35084;SDS011;21267;51.032;6.998;2024-01-07T01:38:32;17.50;;;12.13;;
35084;SDS011;21267;51.032;6.998;2024-01-07T01:40:59;18.73;;;13.32;;
35084;SDS011;21267;51.032;6.998;2024-01-07T01:43:26;14.45;;;10.95;;
35084;SDS011;21267;51.032;6.998;2024-01-07T01:45:55;15.15;;;11.07;;
35084;SDS011;21267;51.032;6.998;2024-01-07T01:48:23;18.65;;;13.13;;
35084;SDS011;21267;51.032;6.998;2024-01-07T01:50:52;16.92;;;12.48;;
35084;SDS011;21267;51.032;6.998;2024-01-07T01:53:20;18.50;;;12.30;;
35084;SDS011;21267;51.032;6.998;2024-01-07T01:55:47;16.05;;;12.45;;
35084;SDS011;21267;51.032;6.998;2024-01-07T01:58:14;15.70;;;10.88;;
35084;SDS011;21267;51.032;6.998;2024-01-07T02:00:44;17.13;;;12.43;;
35084;SDS011;21267;51.032;6.998;2024-01-07T02:03:11;13.70;;;8.98;;
35084;SDS011;21267;51.032;6.998;2024-01-07T02:05:38;16.23;;;11.90;;
35084;SDS011;21267;51.032;6.998;2024-01-07T02:08:05;17.40;;;12.87;;
35084;SDS011;21267;51.032;6.998;2024-01-07T02:10:33;18.67;;;13.93;;
35084;SDS011;21267;51.032;6.998;2024-01-07T02:13:01;18.45;;;11.98;;
35084;SDS011;21267;51.032;6.998;2024-01-07T02:15:28;19.02;;;13.98;;
35084;SDS011;21267;51.032;6.998;2024-01-07T02:17:54;22.73;;;13.20;;
35084;SDS011;21267;51.032;6.998;2024-01-07T02:20:21;20.27;;;15.05;;
35084;SDS011;21267;51.032;6.998;2024-01-07T02:22:48;19.60;;;13.23;;
35084;SDS011;21267;51.032;6.998;2024-01-07T02:25:15;20.60;;;15.23;;
35084;SDS011;21267;51.032;6.998;2024-01-07T02:27:42;23.10;;;15.75;;
35084;SDS011;21267;51.032;6.998;2024-01-07T02:30:09;22.27;;;15.75;;
35084;SDS011;21267;51.032;6.998;2024-01-07T02:32:36;19.23;;;13.40;;
35084;SDS011;21267;51.032;6.998;2024-01-07T02:35:04;23.55;;;16.95;;
35084;SDS011;21267;51.032;6.998;2024-01-07T02:37:32;18.17;;;11.85;;
35084;SDS011;21267;51.032;6.998;2024-01-07T02:39:59;25.38;;;16.10;;
35084;SDS011;21267;51.032;6.998;2024-01-07T02:44:54;21.97;;;16.80;;
35084;SDS011;21267;51.032;6.998;2024-01-07T02:47:21;23.95;;;17.45;;
35084;SDS011;21267;51.032;6.998;2024-01-07T02:49:48;21.73;;;15.73;;
35084;SDS011;21267;51.032;6.998;2024-01-07T02:52:15;27.17;;;18.33;;
35084;SDS011;21267;51.032;6.998;2024-01-07T02:54:42;25.75;;;18.63;;
35084;SDS011;21267;51.032;6.998;2024-01-07T02:57:12;25.15;;;18.90;;
35084;SDS011;21267;51.032;6.998;2024-01-07T02:59:39;25.33;;;18.33;;
35084;SDS011;21267;51.032;6.998;2024-01-07T03:02:05;28.70;;;17.92;;
35084;SDS011;21267;51.032;6.998;2024-01-07T03:04:32;24.97;;;16.90;;
35084;SDS011;21267;51.032;6.998;2024-01-07T03:06:59;30.25;;;19.33;;
35084;SDS011;21267;51.032;6.998;2024-01-07T03:09:26;25.53;;;17.73;;
35084;SDS011;21267;51.032;6.998;2024-01-07T03:11:53;22.63;;;15.93;;
35084;SDS011;21267;51.032;6.998;2024-01-07T03:14:20;24.60;;;17.35;;
35084;SDS011;21267;51.032;6.998;2024-01-07T03:16:48;25.13;;;19.33;;
35084;SDS011;21267;51.032;6.998;2024-01-07T03:19:15;27.25;;;19.67;;
35084;SDS011;21267;51.032;6.998;2024-01-07T03:21:42;28.93;;;18.47;;
35084;SDS011;21267;51.032;6.998;2024-01-07T03:24:09;27.92;;;20.25;;
35084;SDS011;21267;51.032;6.998;2024-01-07T03:29:03;30.83;;;20.50;;
35084;SDS011;21267;51.032;6.998;2024-01-07T03:31:30;33.50;;;21.80;;
35084;SDS011;21267;51.032;6.998;2024-01-07T03:33:57;31.70;;;20.80;;
35084;SDS011;21267;51.032;6.998;2024-01-07T03:36:25;32.47;;;21.70;;
35084;SDS011;21267;51.032;6.998;2024-01-07T03:38:51;34.28;;;24.35;;
35084;SDS011;21267;51.032;6.998;2024-01-07T03:41:20;31.00;;;22.63;;
35084;SDS011;21267;51.032;6.998;2024-01-07T03:43:47;30.38;;;20.55;;
35084;SDS011;21267;51.032;6.998;2024-01-07T03:46:15;30.90;;;21.38;;
35084;SDS011;21267;51.032;6.998;2024-01-07T03:48:44;37.83;;;23.35;;
35084;SDS011;21267;51.032;6.998;2024-01-07T03:51:11;35.20;;;21.77;;
35084;SDS011;21267;51.032;6.998;2024-01-07T03:53:38;34.42;;;22.70;;
35084;SDS011;21267;51.032;6.998;2024-01-07T03:56:05;33.13;;;21.23;;
35084;SDS011;21267;51.032;6.998;2024-01-07T03:58:32;28.33;;;17.38;;
35084;SDS011;21267;51.032;6.998;2024-01-07T04:00:59;33.60;;;21.07;;
35084;SDS011;21267;51.032;6.998;2024-01-07T04:03:27;30.60;;;19.90;;
35084;SDS011;21267;51.032;6.998;2024-01-07T04:05:54;27.43;;;17.70;;
35084;SDS011;21267;51.032;6.998;2024-01-07T04:08:21;28.25;;;18.80;;
35084;SDS011;21267;51.032;6.998;2024-01-07T04:10:48;26.20;;;18.53;;
35084;SDS011;21267;51.032;6.998;2024-01-07T04:13:15;27.63;;;18.73;;
35084;SDS011;21267;51.032;6.998;2024-01-07T04:15:45;26.17;;;17.02;;
35084;SDS011;21267;51.032;6.998;2024-01-07T04:18:12;27.17;;;17.77;;
35084;SDS011;21267;51.032;6.998;2024-01-07T04:20:39;27.70;;;18.73;;
35084;SDS011;21267;51.032;6.998;2024-01-07T04:23:06;27.42;;;18.50;;
35084;SDS011;21267;51.032;6.998;2024-01-07T04:25:33;29.08;;;19.58;;
35084;SDS011;21267;51.032;6.998;2024-01-07T04:27:59;29.77;;;18.75;;
35084;SDS011;21267;51.032;6.998;2024-01-07T04:30:27;30.48;;;20.17;;
35084;SDS011;21267;51.032;6.998;2024-01-07T04:32:53;29.50;;;18.90;;
35084;SDS011;21267;51.032;6.998;2024-01-07T04:35:20;35.17;;;21.60;;
35084;SDS011;21267;51.032;6.998;2024-01-07T04:37:47;33.80;;;21.03;;
35084;SDS011;21267;51.032;6.998;2024-01-07T04:40:14;31.20;;;20.27;;
35084;SDS011;21267;51.032;6.998;2024-01-07T04:42:42;32.45;;;21.25;;
35084;SDS011;21267;51.032;6.998;2024-01-07T04:45:08;30.52;;;20.05;;
35084;SDS011;21267;51.032;6.998;2024-01-07T04:47:35;31.60;;;20.25;;
35084;SDS011;21267;51.032;6.998;2024-01-07T04:50:03;32.38;;;21.63;;
35084;SDS011;21267;51.032;6.998;2024-01-07T04:52:30;31.77;;;21.85;;
35084;SDS011;21267;51.032;6.998;2024-01-07T04:54:57;36.42;;;22.25;;
35084;SDS011;21267;51.032;6.998;2024-01-07T04:57:24;32.35;;;21.65;;
35084;SDS011;21267;51.032;6.998;2024-01-07T04:59:51;34.42;;;22.13;;
35084;SDS011;21267;51.032;6.998;2024-01-07T05:02:19;27.80;;;17.63;;
35084;SDS011;21267;51.032;6.998;2024-01-07T05:07:13;30.60;;;20.73;;
35084;SDS011;21267;51.032;6.998;2024-01-07T05:09:40;32.97;;;22.50;;
35084;SDS011;21267;51.032;6.998;2024-01-07T05:12:07;30.63;;;20.45;;
35084;SDS011;21267;51.032;6.998;2024-01-07T05:14:34;30.25;;;20.38;;
35084;SDS011;21267;51.032;6.998;2024-01-07T05:17:01;30.30;;;20.13;;
35084;SDS011;21267;51.032;6.998;2024-01-07T05:19:27;32.15;;;21.83;;
35084;SDS011;21267;51.032;6.998;2024-01-07T05:21:55;31.60;;;21.90;;
35084;SDS011;21267;51.032;6.998;2024-01-07T05:26:49;29.30;;;21.50;;
35084;SDS011;21267;51.032;6.998;2024-01-07T05:29:16;30.00;;;20.38;;
35084;SDS011;21267;51.032;6.998;2024-01-07T05:31:43;31.27;;;21.75;;
35084;SDS011;21267;51.032;6.998;2024-01-07T05:34:10;30.73;;;20.38;;
35084;SDS011;21267;51.032;6.998;2024-01-07T05:36:37;28.00;;;20.50;;
35084;SDS011;21267;51.032;6.998;2024-01-07T05:39:04;27.90;;;20.40;;
35084;SDS011;21267;51.032;6.998;2024-01-07T05:41:31;25.10;;;18.83;;
35084;SDS011;21267;51.032;6.998;2024-01-07T05:43:57;28.42;;;20.88;;
35084;SDS011;21267;51.032;6.998;2024-01-07T05:46:25;27.88;;;20.67;;
35084;SDS011;21267;51.032;6.998;2024-01-07T05:48:51;27.67;;;20.13;;
35084;SDS011;21267;51.032;6.998;2024-01-07T05:51:18;29.77;;;21.50;;
35084;SDS011;21267;51.032;6.998;2024-01-07T05:53:45;29.43;;;21.30;;
35084;SDS011;21267;51.032;6.998;2024-01-07T05:56:12;27.37;;;19.63;;
35084;SDS011;21267;51.032;6.998;2024-01-07T05:58:39;29.97;;;21.57;;
35084;SDS011;21267;51.032;6.998;2024-01-07T06:01:07;26.38;;;19.58;;
35084;SDS011;21267;51.032;6.998;2024-01-07T06:03:35;28.88;;;20.58;;
35084;SDS011;21267;51.032;6.998;2024-01-07T06:06:03;27.60;;;20.52;;
35084;SDS011;21267;51.032;6.998;2024-01-07T06:08:30;24.23;;;18.75;;
35084;SDS011;21267;51.032;6.998;2024-01-07T06:10:57;24.75;;;19.52;;
35084;SDS011;21267;51.032;6.998;2024-01-07T06:13:24;26.67;;;19.88;;
35084;SDS011;21267;51.032;6.998;2024-01-07T06:15:51;27.23;;;19.60;;
35084;SDS011;21267;51.032;6.998;2024-01-07T06:18:19;27.70;;;19.10;;
35084;SDS011;21267;51.032;6.998;2024-01-07T06:20:46;29.38;;;19.88;;
35084;SDS011;21267;51.032;6.998;2024-01-07T06:23:13;19.87;;;13.77;;
35084;SDS011;21267;51.032;6.998;2024-01-07T06:25:40;27.63;;;18.75;;
35084;SDS011;21267;51.032;6.998;2024-01-07T06:28:08;28.70;;;20.70;;
35084;SDS011;21267;51.032;6.998;2024-01-07T06:30:37;25.95;;;18.88;;
35084;SDS011;21267;51.032;6.998;2024-01-07T06:33:04;27.17;;;20.47;;
35084;SDS011;21267;51.032;6.998;2024-01-07T06:35:32;28.73;;;19.80;;
35084;SDS011;21267;51.032;6.998;2024-01-07T06:37:59;29.63;;;20.30;;
35084;SDS011;21267;51.032;6.998;2024-01-07T06:40:26;28.42;;;20.92;;
35084;SDS011;21267;51.032;6.998;2024-01-07T06:42:52;25.33;;;19.90;;
35084;SDS011;21267;51.032;6.998;2024-01-07T06:45:19;29.83;;;21.00;;
35084;SDS011;21267;51.032;6.998;2024-01-07T06:47:46;30.60;;;21.52;;
35084;SDS011;21267;51.032;6.998;2024-01-07T06:50:13;28.23;;;20.35;;
35084;SDS011;21267;51.032;6.998;2024-01-07T06:52:40;29.27;;;21.02;;
35084;SDS011;21267;51.032;6.998;2024-01-07T06:55:07;27.10;;;18.65;;
35084;SDS011;21267;51.032;6.998;2024-01-07T06:57:34;22.60;;;16.35;;
35084;SDS011;21267;51.032;6.998;2024-01-07T07:00:01;18.60;;;13.60;;
35084;SDS011;21267;51.032;6.998;2024-01-07T07:02:29;23.33;;;17.48;;
35084;SDS011;21267;51.032;6.998;2024-01-07T07:04:56;23.00;;;17.60;;
35084;SDS011;21267;51.032;6.998;2024-01-07T07:07:22;23.37;;;17.50;;
35084;SDS011;21267;51.032;6.998;2024-01-07T07:09:49;21.38;;;16.48;;
35084;SDS011;21267;51.032;6.998;2024-01-07T07:12:17;16.58;;;13.65;;
35084;SDS011;21267;51.032;6.998;2024-01-07T07:14:44;21.10;;;16.67;;
35084;SDS011;21267;51.032;6.998;2024-01-07T07:17:11;21.75;;;16.83;;
35084;SDS011;21267;51.032;6.998;2024-01-07T07:19:38;23.17;;;17.73;;
35084;SDS011;21267;51.032;6.998;2024-01-07T07:22:10;21.13;;;16.65;;
35084;SDS011;21267;51.032;6.998;2024-01-07T07:24:40;21.17;;;17.10;;
35084;SDS011;21267;51.032;6.998;2024-01-07T07:27:07;21.70;;;16.95;;
35084;SDS011;21267;51.032;6.998;2024-01-07T07:33:39;22.55;;;17.33;;
35084;SDS011;21267;51.032;6.998;2024-01-07T07:38:33;23.30;;;16.23;;
35084;SDS011;21267;51.032;6.998;2024-01-07T07:41:00;21.17;;;16.58;;
35084;SDS011;21267;51.032;6.998;2024-01-07T07:43:27;24.30;;;17.33;;
35084;SDS011;21267;51.032;6.998;2024-01-07T07:45:55;23.10;;;17.27;;
35084;SDS011;21267;51.032;6.998;2024-01-07T07:48:21;21.60;;;16.77;;
35084;SDS011;21267;51.032;6.998;2024-01-07T07:50:48;22.92;;;17.58;;
35084;SDS011;21267;51.032;6.998;2024-01-07T07:53:16;21.60;;;17.17;;
35084;SDS011;21267;51.032;6.998;2024-01-07T07:55:43;23.03;;;17.13;;
35084;SDS011;21267;51.032;6.998;2024-01-07T07:58:10;25.58;;;18.50;;
35084;SDS011;21267;51.032;6.998;2024-01-07T08:00:36;23.38;;;16.73;;
35084;SDS011;21267;51.032;6.998;2024-01-07T08:03:03;24.17;;;18.03;;
35084;SDS011;21267;51.032;6.998;2024-01-07T08:05:31;26.93;;;19.53;;
35084;SDS011;21267;51.032;6.998;2024-01-07T08:07:58;26.40;;;18.77;;
35084;SDS011;21267;51.032;6.998;2024-01-07T08:10:25;24.10;;;17.05;;
35084;SDS011;21267;51.032;6.998;2024-01-07T08:12:52;24.10;;;17.53;;
35084;SDS011;21267;51.032;6.998;2024-01-07T08:15:18;21.23;;;17.63;;
35084;SDS011;21267;51.032;6.998;2024-01-07T08:17:45;24.40;;;15.77;;
35084;SDS011;21267;51.032;6.998;2024-01-07T08:20:12;34.03;;;24.35;;
35084;SDS011;21267;51.032;6.998;2024-01-07T08:22:39;22.93;;;18.00;;
35084;SDS011;21267;51.032;6.998;2024-01-07T08:25:06;26.10;;;18.38;;
35084;SDS011;21267;51.032;6.998;2024-01-07T08:27:33;22.63;;;16.92;;
35084;SDS011;21267;51.032;6.998;2024-01-07T08:30:01;26.50;;;17.92;;
35084;SDS011;21267;51.032;6.998;2024-01-07T08:32:28;27.53;;;19.17;;
35084;SDS011;21267;51.032;6.998;2024-01-07T08:34:55;31.27;;;20.13;;
35084;SDS011;21267;51.032;6.998;2024-01-07T08:37:22;20.17;;;15.02;;
35084;SDS011;21267;51.032;6.998;2024-01-07T08:39:49;25.95;;;18.95;;
35084;SDS011;21267;51.032;6.998;2024-01-07T08:42:15;24.27;;;18.23;;
35084;SDS011;21267;51.032;6.998;2024-01-07T08:44:42;25.80;;;20.17;;
35084;SDS011;21267;51.032;6.998;2024-01-07T08:47:09;25.70;;;18.48;;
35084;SDS011;21267;51.032;6.998;2024-01-07T08:49:36;29.58;;;21.05;;
35084;SDS011;21267;51.032;6.998;2024-01-07T08:52:05;28.83;;;20.65;;
35084;SDS011;21267;51.032;6.998;2024-01-07T08:54:32;23.40;;;16.23;;
35084;SDS011;21267;51.032;6.998;2024-01-07T08:56:59;24.17;;;17.75;;
35084;SDS011;21267;51.032;6.998;2024-01-07T08:59:26;21.98;;;17.52;;
35084;SDS011;21267;51.032;6.998;2024-01-07T09:01:53;23.45;;;17.00;;
35084;SDS011;21267;51.032;6.998;2024-01-07T09:04:20;21.17;;;13.87;;
35084;SDS011;21267;51.032;6.998;2024-01-07T09:09:14;23.35;;;18.00;;
35084;SDS011;21267;51.032;6.998;2024-01-07T09:11:42;27.50;;;18.77;;
35084;SDS011;21267;51.032;6.998;2024-01-07T09:14:08;25.13;;;17.95;;
35084;SDS011;21267;51.032;6.998;2024-01-07T09:16:35;25.15;;;17.98;;
35084;SDS011;21267;51.032;6.998;2024-01-07T09:19:03;22.83;;;16.15;;
35084;SDS011;21267;51.032;6.998;2024-01-07T09:21:30;21.23;;;16.23;;
35084;SDS011;21267;51.032;6.998;2024-01-07T09:23:57;23.67;;;14.03;;
35084;SDS011;21267;51.032;6.998;2024-01-07T09:26:24;21.30;;;16.77;;
35084;SDS011;21267;51.032;6.998;2024-01-07T09:28:51;20.55;;;16.05;;
35084;SDS011;21267;51.032;6.998;2024-01-07T09:31:18;17.52;;;11.10;;
35084;SDS011;21267;51.032;6.998;2024-01-07T09:33:45;15.73;;;9.67;;
35084;SDS011;21267;51.032;6.998;2024-01-07T09:36:12;18.08;;;14.07;;
35084;SDS011;21267;51.032;6.998;2024-01-07T09:38:54;16.30;;;12.75;;
35084;SDS011;21267;51.032;6.998;2024-01-07T09:41:21;17.53;;;12.47;;
35084;SDS011;21267;51.032;6.998;2024-01-07T09:43:48;18.77;;;14.02;;
35084;SDS011;21267;51.032;6.998;2024-01-07T09:46:16;14.38;;;11.73;;
35084;SDS011;21267;51.032;6.998;2024-01-07T09:48:43;12.13;;;10.07;;
35084;SDS011;21267;51.032;6.998;2024-01-07T09:51:10;12.63;;;10.67;;
35084;SDS011;21267;51.032;6.998;2024-01-07T09:53:38;10.82;;;8.07;;
35084;SDS011;21267;51.032;6.998;2024-01-07T09:58:45;11.35;;;9.73;;
35084;SDS011;21267;51.032;6.998;2024-01-07T10:01:15;10.93;;;9.65;;
35084;SDS011;21267;51.032;6.998;2024-01-07T10:03:43;11.27;;;10.10;;
35084;SDS011;21267;51.032;6.998;2024-01-07T10:06:11;10.80;;;9.65;;
35084;SDS011;21267;51.032;6.998;2024-01-07T10:08:39;12.68;;;11.07;;
35084;SDS011;21267;51.032;6.998;2024-01-07T10:13:36;14.57;;;10.70;;
35084;SDS011;21267;51.032;6.998;2024-01-07T10:18:31;13.32;;;11.38;;
35084;SDS011;21267;51.032;6.998;2024-01-07T10:21:07;13.48;;;11.40;;
35084;SDS011;21267;51.032;6.998;2024-01-07T10:23:34;15.13;;;11.18;;
35084;SDS011;21267;51.032;6.998;2024-01-07T10:26:02;15.50;;;12.02;;
35084;SDS011;21267;51.032;6.998;2024-01-07T10:28:45;16.95;;;13.30;;
35084;SDS011;21267;51.032;6.998;2024-01-07T10:31:12;16.70;;;13.63;;
35084;SDS011;21267;51.032;6.998;2024-01-07T10:33:42;17.75;;;14.57;;
35084;SDS011;21267;51.032;6.998;2024-01-07T10:36:09;16.45;;;12.32;;
35084;SDS011;21267;51.032;6.998;2024-01-07T10:38:38;19.80;;;14.35;;
35084;SDS011;21267;51.032;6.998;2024-01-07T10:41:10;17.48;;;14.60;;
35084;SDS011;21267;51.032;6.998;2024-01-07T10:43:38;20.17;;;15.27;;
35084;SDS011;21267;51.032;6.998;2024-01-07T10:46:07;19.08;;;14.90;;
35084;SDS011;21267;51.032;6.998;2024-01-07T10:48:38;20.58;;;14.93;;
35084;SDS011;21267;51.032;6.998;2024-01-07T10:51:09;17.95;;;14.98;;
35084;SDS011;21267;51.032;6.998;2024-01-07T10:53:39;19.20;;;15.23;;
35084;SDS011;21267;51.032;6.998;2024-01-07T10:56:11;20.05;;;15.70;;
35084;SDS011;21267;51.032;6.998;2024-01-07T10:58:39;16.08;;;10.60;;
35084;SDS011;21267;51.032;6.998;2024-01-07T11:01:07;17.65;;;14.02;;
35084;SDS011;21267;51.032;6.998;2024-01-07T11:09:14;18.02;;;14.75;;
35084;SDS011;21267;51.032;6.998;2024-01-07T11:11:56;20.17;;;16.10;;
35084;SDS011;21267;51.032;6.998;2024-01-07T11:14:39;22.70;;;16.00;;
35084;SDS011;21267;51.032;6.998;2024-01-07T11:17:06;17.50;;;14.07;;
35084;SDS011;21267;51.032;6.998;2024-01-07T11:19:37;16.38;;;13.35;;
35084;SDS011;21267;51.032;6.998;2024-01-07T11:22:21;12.18;;;8.57;;
35084;SDS011;21267;51.032;6.998;2024-01-07T11:24:54;17.30;;;14.02;;
35084;SDS011;21267;51.032;6.998;2024-01-07T11:27:24;18.63;;;14.52;;
35084;SDS011;21267;51.032;6.998;2024-01-07T11:29:55;18.55;;;13.43;;
35084;SDS011;21267;51.032;6.998;2024-01-07T11:32:36;13.85;;;8.57;;
35084;SDS011;21267;51.032;6.998;2024-01-07T11:35:06;16.80;;;11.98;;
35084;SDS011;21267;51.032;6.998;2024-01-07T11:37:34;15.80;;;12.07;;
35084;SDS011;21267;51.032;6.998;2024-01-07T11:40:02;17.23;;;13.50;;
35084;SDS011;21267;51.032;6.998;2024-01-07T11:42:31;18.40;;;14.18;;
35084;SDS011;21267;51.032;6.998;2024-01-07T11:47:25;18.37;;;13.87;;
35084;SDS011;21267;51.032;6.998;2024-01-07T11:49:54;17.88;;;13.65;;
35084;SDS011;21267;51.032;6.998;2024-01-07T11:52:22;16.58;;;13.13;;
35084;SDS011;21267;51.032;6.998;2024-01-07T11:54:49;15.20;;;11.73;;
35084;SDS011;21267;51.032;6.998;2024-01-07T11:57:17;15.40;;;12.40;;
35084;SDS011;21267;51.032;6.998;2024-01-07T11:59:44;17.10;;;11.95;;
35084;SDS011;21267;51.032;6.998;2024-01-07T12:02:11;16.23;;;12.23;;
35084;SDS011;21267;51.032;6.998;2024-01-07T12:04:38;13.87;;;10.93;;
35084;SDS011;21267;51.032;6.998;2024-01-07T12:07:06;14.60;;;11.25;;
35084;SDS011;21267;51.032;6.998;2024-01-07T12:09:33;12.02;;;8.50;;
35084;SDS011;21267;51.032;6.998;2024-01-07T12:12:01;18.45;;;11.55;;
35084;SDS011;21267;51.032;6.998;2024-01-07T12:14:30;16.13;;;11.35;;
35084;SDS011;21267;51.032;6.998;2024-01-07T12:16:58;14.73;;;11.00;;
35084;SDS011;21267;51.032;6.998;2024-01-07T12:19:25;13.87;;;11.20;;
35084;SDS011;21267;51.032;6.998;2024-01-07T12:22:08;10.43;;;8.18;;
35084;SDS011;21267;51.032;6.998;2024-01-07T12:24:36;14.45;;;11.27;;
35084;SDS011;21267;51.032;6.998;2024-01-07T12:27:07;14.10;;;11.25;;
35084;SDS011;21267;51.032;6.998;2024-01-07T12:29:39;11.85;;;9.48;;
35084;SDS011;21267;51.032;6.998;2024-01-07T12:32:07;10.43;;;8.50;;
35084;SDS011;21267;51.032;6.998;2024-01-07T12:34:36;12.43;;;9.82;;
35084;SDS011;21267;51.032;6.998;2024-01-07T12:39:31;11.55;;;9.38;;
35084;SDS011;21267;51.032;6.998;2024-01-07T12:41:58;14.50;;;9.23;;
35084;SDS011;21267;51.032;6.998;2024-01-07T12:44:28;13.07;;;9.80;;
35084;SDS011;21267;51.032;6.998;2024-01-07T12:46:55;13.57;;;9.45;;
35084;SDS011;21267;51.032;6.998;2024-01-07T12:49:23;11.37;;;9.13;;
35084;SDS011;21267;51.032;6.998;2024-01-07T12:51:50;13.23;;;8.48;;
35084;SDS011;21267;51.032;6.998;2024-01-07T12:54:19;12.07;;;8.93;;
35084;SDS011;21267;51.032;6.998;2024-01-07T12:56:46;9.57;;;7.90;;
35084;SDS011;21267;51.032;6.998;2024-01-07T12:59:13;10.93;;;7.43;;
35084;SDS011;21267;51.032;6.998;2024-01-07T13:01:43;11.05;;;8.90;;
35084;SDS011;21267;51.032;6.998;2024-01-07T13:04:11;11.88;;;8.68;;
35084;SDS011;21267;51.032;6.998;2024-01-07T13:06:38;9.60;;;7.40;;
35084;SDS011;21267;51.032;6.998;2024-01-07T13:09:05;9.75;;;8.07;;
35084;SDS011;21267;51.032;6.998;2024-01-07T13:11:32;7.80;;;6.03;;
35084;SDS011;21267;51.032;6.998;2024-01-07T13:14:01;13.00;;;8.00;;
35084;SDS011;21267;51.032;6.998;2024-01-07T13:16:29;15.77;;;7.82;;
35084;SDS011;21267;51.032;6.998;2024-01-07T13:18:56;6.97;;;5.65;;
35084;SDS011;21267;51.032;6.998;2024-01-07T13:21:23;9.05;;;6.10;;
35084;SDS011;21267;51.032;6.998;2024-01-07T13:23:51;9.25;;;7.10;;
35084;SDS011;21267;51.032;6.998;2024-01-07T13:26:18;9.07;;;7.07;;
35084;SDS011;21267;51.032;6.998;2024-01-07T13:28:45;7.67;;;6.03;;
35084;SDS011;21267;51.032;6.998;2024-01-07T13:31:12;7.70;;;6.50;;
35084;SDS011;21267;51.032;6.998;2024-01-07T13:33:40;9.18;;;6.35;;
35084;SDS011;21267;51.032;6.998;2024-01-07T13:36:07;8.18;;;7.00;;
35084;SDS011;21267;51.032;6.998;2024-01-07T13:38:37;7.53;;;6.82;;
35084;SDS011;21267;51.032;6.998;2024-01-07T13:41:11;6.78;;;5.88;;
35084;SDS011;21267;51.032;6.998;2024-01-07T13:43:38;7.03;;;6.30;;
35084;SDS011;21267;51.032;6.998;2024-01-07T13:46:07;9.20;;;7.60;;
35084;SDS011;21267;51.032;6.998;2024-01-07T13:48:38;9.30;;;6.90;;
35084;SDS011;21267;51.032;6.998;2024-01-07T13:51:08;8.10;;;7.10;;
35084;SDS011;21267;51.032;6.998;2024-01-07T13:56:03;7.93;;;6.00;;
35084;SDS011;21267;51.032;6.998;2024-01-07T13:58:30;13.05;;;7.78;;
35084;SDS011;21267;51.032;6.998;2024-01-07T14:00:58;10.13;;;4.32;;
35084;SDS011;21267;51.032;6.998;2024-01-07T14:03:25;8.70;;;6.22;;
35084;SDS011;21267;51.032;6.998;2024-01-07T14:05:53;7.93;;;5.87;;
35084;SDS011;21267;51.032;6.998;2024-01-07T14:10:47;6.55;;;5.47;;
35084;SDS011;21267;51.032;6.998;2024-01-07T14:13:15;8.45;;;5.80;;
35084;SDS011;21267;51.032;6.998;2024-01-07T14:15:42;8.70;;;5.77;;
35084;SDS011;21267;51.032;6.998;2024-01-07T14:18:10;5.40;;;4.40;;
35084;SDS011;21267;51.032;6.998;2024-01-07T14:20:42;4.30;;;3.90;;
35084;SDS011;21267;51.032;6.998;2024-01-07T14:23:09;4.68;;;3.45;;
35084;SDS011;21267;51.032;6.998;2024-01-07T14:25:36;4.55;;;3.53;;
35084;SDS011;21267;51.032;6.998;2024-01-07T14:28:04;3.80;;;2.83;;
35084;SDS011;21267;51.032;6.998;2024-01-07T14:32:58;4.57;;;3.28;;
35084;SDS011;21267;51.032;6.998;2024-01-07T14:35:28;3.17;;;2.88;;
35084;SDS011;21267;51.032;6.998;2024-01-07T14:38:00;5.13;;;3.60;;
35084;SDS011;21267;51.032;6.998;2024-01-07T14:40:34;5.83;;;3.50;;
35084;SDS011;21267;51.032;6.998;2024-01-07T14:43:01;4.95;;;3.95;;
35084;SDS011;21267;51.032;6.998;2024-01-07T14:45:28;6.57;;;3.10;;
35084;SDS011;21267;51.032;6.998;2024-01-07T14:47:55;3.87;;;3.47;;
35084;SDS011;21267;51.032;6.998;2024-01-07T14:50:22;5.65;;;3.42;;
35084;SDS011;21267;51.032;6.998;2024-01-07T14:53:01;6.13;;;3.83;;
35084;SDS011;21267;51.032;6.998;2024-01-07T14:55:29;4.47;;;3.88;;
35084;SDS011;21267;51.032;6.998;2024-01-07T14:57:56;5.50;;;3.93;;
35084;SDS011;21267;51.032;6.998;2024-01-07T15:00:23;4.90;;;4.00;;
35084;SDS011;21267;51.032;6.998;2024-01-07T15:02:50;6.67;;;4.17;;
35084;SDS011;21267;51.032;6.998;2024-01-07T15:05:18;5.88;;;3.70;;
35084;SDS011;21267;51.032;6.998;2024-01-07T15:07:45;4.47;;;3.40;;
35084;SDS011;21267;51.032;6.998;2024-01-07T15:10:16;3.47;;;2.85;;
35084;SDS011;21267;51.032;6.998;2024-01-07T15:12:45;5.85;;;2.42;;
35084;SDS011;21267;51.032;6.998;2024-01-07T15:15:27;4.03;;;2.88;;
35084;SDS011;21267;51.032;6.998;2024-01-07T15:17:56;5.22;;;3.38;;